createdAt,value
2023-03-25T17:38:58.534Z,16.64
2023-03-25T17:42:02.629Z,16.55
2023-03-25T17:44:50.875Z,16.66
2023-03-25T17:47:40.379Z,16.69
2023-03-25T17:50:14.135Z,16.59
2023-03-25T17:52:44.108Z,16.48
2023-03-25T17:55:12.053Z,16.44
2023-03-25T17:57:46.172Z,16.48
2023-03-25T18:00:20.280Z,16.48
2023-03-25T18:02:47.735Z,16.50
2023-03-25T18:05:17.580Z,16.51
2023-03-25T18:07:45.974Z,16.37
2023-03-25T18:10:23.304Z,16.27
2023-03-25T18:12:51.758Z,16.11
2023-03-25T18:15:19.176Z,16.02
2023-03-25T18:17:56.095Z,15.93
2023-03-25T18:20:32.205Z,15.79
2023-03-25T18:23:01.490Z,15.69
2023-03-25T18:26:18.906Z,15.58
2023-03-25T18:29:40.560Z,15.49
2023-03-25T18:32:30.887Z,15.36
2023-03-25T18:35:07.793Z,15.28
2023-03-25T18:37:37.959Z,15.20
2023-03-25T18:40:43.197Z,15.08
2023-03-25T18:43:42.007Z,14.96
2023-03-25T18:46:21.823Z,14.87
2023-03-25T18:49:18.359Z,14.77
2023-03-25T18:52:45.603Z,14.70
2023-03-25T18:55:18.111Z,14.64
2023-03-25T18:58:18.186Z,14.60
2023-03-25T19:00:52.412Z,14.51
2023-03-25T19:06:42.607Z,14.36
2023-03-25T19:09:48.008Z,14.31
2023-03-25T19:12:25.768Z,14.27
2023-03-25T19:15:16.892Z,14.25
2023-03-25T19:18:08.711Z,14.21
2023-03-25T19:20:44.491Z,14.19
2023-03-25T19:23:19.576Z,14.18
2023-03-25T19:25:49.070Z,14.17
2023-03-25T19:28:21.221Z,14.18
2023-03-25T19:30:50.802Z,14.16
2023-03-25T19:33:19.007Z,14.15
2023-03-25T19:35:53.694Z,14.13
2023-03-25T19:38:25.015Z,14.11
2023-03-25T19:41:07.780Z,14.07
2023-03-25T19:47:17.497Z,13.98
2023-03-25T19:49:59.756Z,13.95
2023-03-25T20:01:01.612Z,13.68
2023-03-25T20:23:57.993Z,13.26
2023-03-25T20:30:45.218Z,13.23
2023-03-25T20:41:16.130Z,13.13
2023-03-25T20:52:19.066Z,12.94
2023-03-25T20:59:08.769Z,12.86
2023-03-25T21:02:12.289Z,12.82
2023-03-25T21:09:01.014Z,12.67
2023-03-25T21:12:08.496Z,12.63
2023-03-25T21:18:55.983Z,12.52
2023-03-25T21:25:22.593Z,12.44
2023-03-25T21:27:49.400Z,12.42
2023-03-25T21:34:34.218Z,12.40
2023-03-25T21:37:44.549Z,12.42
2023-03-25T21:44:32.209Z,12.42
2023-03-25T21:47:39.569Z,12.44
2023-03-25T21:50:10.472Z,12.42
2023-03-25T22:02:46.377Z,12.40
2023-03-25T22:09:33.825Z,12.45
